Time;durP1;ratioP1;P1;durP2;ratioP2;P2;SDS_P1;SDS_P2;PMS_P1;PMS_P2;Temp;Humidity;BMP_temperature;BMP_pressure;BME280_temperature;BME280_humidity;BME280_pressure;Samples;Min_cycle;Max_cycle;Signal;HPM_P1;HPM_P2
2022/08/05 00:01:11;;;;;;;4.00;3.60;;;26.30;74.40;;;;;;5057267;28;20815;-87
2022/08/05 00:03:36;;;;;;;7.23;3.83;;;24.80;78.30;;;;;;5051756;28;20431;-88
2022/08/05 00:06:02;;;;;;;6.10;3.30;;;24.60;81.40;;;;;;5062985;28;20492;-86
2022/08/05 00:08:27;;;;;;;2.80;2.50;;;24.50;81.60;;;;;;5083764;28;20596;-87
2022/08/05 00:10:53;;;;;;;4.10;3.07;;;24.50;77.90;;;;;;5075752;28;21102;-86
2022/08/05 00:13:18;;;;;;;3.97;2.67;;;24.40;77.20;;;;;;5078148;28;20192;-86
2022/08/05 00:15:44;;;;;;;5.67;2.50;;;24.50;76.20;;;;;;5053109;28;20806;-87
2022/08/05 00:18:09;;;;;;;2.20;2.00;;;24.50;77.30;;;;;;5060334;28;20173;-88
2022/08/05 00:20:35;;;;;;;4.53;2.80;;;24.60;78.10;;;;;;5054694;28;20181;-88
2022/08/05 00:23:00;;;;;;;4.40;2.87;;;24.60;77.50;;;;;;5059819;28;20219;-87
2022/08/05 00:25:26;;;;;;;3.83;2.93;;;24.50;75.80;;;;;;5055745;28;20181;-87
2022/08/05 00:27:52;;;;;;;3.20;2.90;;;24.70;73.10;;;;;;5066585;28;20184;-87
2022/08/05 00:30:17;;;;;;;5.83;2.80;;;25.10;68.60;;;;;;5084013;28;20226;-86
2022/08/05 00:32:43;;;;;;;3.90;3.00;;;25.90;64.10;;;;;;5066790;28;20452;-88
2022/08/05 00:35:08;;;;;;;6.80;3.73;;;26.30;60.60;;;;;;5073808;28;20204;-87
2022/08/05 00:37:34;;;;;;;6.73;3.23;;;26.70;58.90;;;;;;5073814;28;20217;-88
2022/08/05 00:40:00;;;;;;;4.20;2.93;;;27.00;58.90;;;;;;5101213;28;20193;-87
2022/08/05 00:42:37;;;;;;;7.83;3.97;;;26.60;58.90;;;;;;5083071;28;20228;-86
2022/08/05 00:45:05;;;;;;;3.33;3.03;;;26.50;59.80;;;;;;5078880;28;20176;-87
2022/08/05 00:47:31;;;;;;;9.40;3.50;;;26.40;61.60;;;;;;5070824;28;20433;-87
2022/08/05 00:49:56;;;;;;;6.23;3.40;;;26.10;67.50;;;;;;5070034;28;20442;-88
2022/08/05 00:52:22;;;;;;;8.90;3.77;;;26.00;69.40;;;;;;5068431;28;20267;-88
2022/08/05 00:54:48;;;;;;;6.17;3.00;;;25.80;71.90;;;;;;5079125;28;20307;-86
2022/08/05 00:57:13;;;;;;;9.60;4.20;;;25.70;74.50;;;;;;5078321;28;20200;-86
2022/08/05 00:59:39;;;;;;;6.13;3.47;;;25.60;76.40;;;;;;5078939;28;20434;-89
2022/08/05 01:02:05;;;;;;;9.30;4.17;;;25.40;79.10;;;;;;5094818;28;20200;-87
2022/08/05 01:04:30;;;;;;;7.03;3.23;;;25.40;81.00;;;;;;5087033;28;20215;-88
2022/08/05 01:06:56;;;;;;;3.73;3.20;;;25.60;83.50;;;;;;5079649;28;20192;-86
2022/08/05 01:09:21;;;;;;;4.10;3.70;;;25.40;84.80;;;;;;5083526;28;20237;-87
2022/08/05 01:11:49;;;;;;;11.07;3.70;;;25.20;86.10;;;;;;5084638;28;20299;-87
2022/08/05 01:14:29;;;;;;;11.83;4.17;;;26.60;88.80;;;;;;5106714;28;20180;-85
2022/08/05 01:17:20;;;;;;;5.63;3.33;;;25.10;89.50;;;;;;5076776;28;20560;-87
2022/08/05 01:20:05;;;;;;;15.03;3.67;;;25.00;90.60;;;;;;5077235;28;20429;-88
2022/08/05 01:22:48;;;;;;;7.63;4.00;;;24.80;91.70;;;;;;5079801;28;20477;-87
2022/08/05 01:25:36;;;;;;;8.70;3.70;;;24.90;92.60;;;;;;5079115;28;20453;-87
2022/08/05 01:28:26;;;;;;;7.60;3.87;;;24.80;93.60;;;;;;5076027;28;20807;-86
2022/08/05 01:30:58;;;;;;;15.13;4.90;;;25.80;95.50;;;;;;5100351;28;20433;-90
2022/08/05 01:33:31;;;;;;;5.43;3.87;;;24.80;95.90;;;;;;5081999;28;20431;-88
2022/08/05 01:36:02;;;;;;;11.63;3.60;;;24.80;96.50;;;;;;5082015;28;20468;-89
2022/08/05 01:38:27;;;;;;;6.13;3.43;;;24.70;97.40;;;;;;5080854;28;20446;-86
2022/08/05 01:40:57;;;;;;;10.80;3.70;;;24.60;98.40;;;;;;5079860;28;20545;-87
2022/08/05 01:43:23;;;;;;;7.93;3.60;;;24.60;99.60;;;;;;5077263;28;20847;-88
2022/08/05 01:45:52;;;;;;;9.80;4.33;;;24.50;99.90;;;;;;5078527;28;20458;-87
2022/08/05 01:48:19;;;;;;;6.80;3.70;;;24.50;99.90;;;;;;5071462;28;20441;-87
2022/08/05 01:50:45;;;;;;;12.10;4.67;;;24.40;99.90;;;;;;5068670;28;20537;-86
2022/08/05 01:53:13;;;;;;;7.23;3.70;;;24.40;99.90;;;;;;5075680;28;20427;-86
2022/08/05 01:55:42;;;;;;;15.13;4.60;;;24.40;99.90;;;;;;5081050;28;20460;-88
2022/08/05 01:58:10;;;;;;;7.10;4.10;;;24.40;99.90;;;;;;5078772;28;20470;-87
2022/08/05 02:00:41;;;;;;;9.70;5.30;;;24.40;99.90;;;;;;5074553;28;20433;-90
2022/08/05 02:03:15;;;;;;;8.83;4.20;;;25.10;99.90;;;;;;5091473;28;20423;-90
2022/08/05 02:05:43;;;;;;;12.40;4.20;;;24.30;99.90;;;;;;5080565;28;20448;-89
2022/08/05 02:08:09;;;;;;;9.03;4.43;;;24.20;99.90;;;;;;5092713;28;20538;-89
2022/08/05 02:10:58;;;;;;;12.57;5.03;;;24.10;99.90;;;;;;5077005;28;20451;-85
2022/08/05 02:13:52;;;;;;;9.50;4.33;;;24.00;99.90;;;;;;5111087;28;20176;-87
2022/08/05 02:16:33;;;;;;;9.93;4.57;;;24.10;99.90;;;;;;5039632;28;20478;-85
2022/08/05 02:19:04;;;;;;;9.50;5.33;;;24.00;99.90;;;;;;5067260;28;20464;-87
2022/08/05 02:21:34;;;;;;;6.00;4.60;;;24.00;99.90;;;;;;5068384;28;20453;-86
2022/08/05 02:24:05;;;;;;;11.77;4.37;;;23.90;99.90;;;;;;5069509;28;20529;-88
2022/08/05 02:26:45;;;;;;;15.93;5.20;;;23.80;99.90;;;;;;5084562;28;20441;-86
2022/08/05 02:29:12;;;;;;;11.33;4.93;;;23.70;99.90;;;;;;5074093;28;20445;-87
2022/08/05 02:31:39;;;;;;;12.90;4.13;;;23.70;99.90;;;;;;5079739;28;20481;-86
2022/08/05 02:34:10;;;;;;;12.50;4.73;;;23.70;99.90;;;;;;5075585;28;20434;-87
2022/08/05 02:36:41;;;;;;;9.23;4.70;;;23.70;99.90;;;;;;5077185;28;20498;-88
2022/08/05 02:39:08;;;;;;;8.47;4.27;;;23.60;99.90;;;;;;5065308;28;20461;-89
2022/08/05 02:41:36;;;;;;;6.73;4.10;;;23.80;99.90;;;;;;5065196;28;20456;-87
2022/08/05 02:44:06;;;;;;;6.10;3.97;;;24.40;99.90;;;;;;5088702;28;20442;-87
2022/08/05 02:46:33;;;;;;;7.90;4.57;;;23.50;99.90;;;;;;5074218;28;20433;-86
2022/08/05 02:48:59;;;;;;;6.03;4.87;;;23.40;99.90;;;;;;5076365;28;20430;-85
2022/08/05 02:51:25;;;;;;;8.93;4.07;;;23.70;99.90;;;;;;5076054;28;20465;-90
2022/08/05 02:53:52;;;;;;;8.70;4.20;;;23.20;99.90;;;;;;5065596;28;20446;-86
2022/08/05 02:56:18;;;;;;;7.40;4.00;;;23.20;99.90;;;;;;5084932;28;20869;-87
2022/08/05 02:58:44;;;;;;;6.57;4.20;;;23.90;99.90;;;;;;5066614;28;20451;-86
2022/08/05 03:01:15;;;;;;;8.60;4.33;;;23.10;99.90;;;;;;5062577;28;20455;-86
2022/08/05 03:03:42;;;;;;;11.50;4.93;;;23.40;99.90;;;;;;5073080;28;20437;-86
2022/08/05 03:06:10;;;;;;;9.50;4.50;;;24.20;99.90;;;;;;5080714;28;20481;-87
2022/08/05 03:08:37;;;;;;;13.40;3.93;;;23.30;99.90;;;;;;5069257;28;20430;-85
2022/08/05 03:11:03;;;;;;;9.67;4.50;;;23.30;99.90;;;;;;5071290;28;20439;-85
2022/08/05 03:13:29;;;;;;;6.50;3.90;;;23.50;99.90;;;;;;5064568;28;20453;-85
2022/08/05 03:15:54;;;;;;;9.30;4.50;;;23.30;99.90;;;;;;5067754;28;20490;-86
2022/08/05 03:18:20;;;;;;;5.27;4.33;;;23.30;99.90;;;;;;5077173;28;20456;-86
2022/08/05 03:20:46;;;;;;;7.73;3.67;;;23.20;99.90;;;;;;5078916;28;20208;-88
2022/08/05 03:23:13;;;;;;;6.10;3.70;;;22.90;99.90;;;;;;5077292;28;20168;-86
2022/08/05 03:25:39;;;;;;;10.73;4.57;;;23.20;99.90;;;;;;5074073;28;20718;-88
2022/08/05 03:28:07;;;;;;;8.13;5.20;;;23.20;99.90;;;;;;5061361;28;20523;-88
2022/08/05 03:30:33;;;;;;;5.43;3.93;;;23.20;99.90;;;;;;5070794;28;21418;-87
2022/08/05 03:33:04;;;;;;;10.40;3.87;;;23.20;99.90;;;;;;5074791;28;20433;-88
2022/08/05 03:35:31;;;;;;;4.40;3.50;;;23.20;99.90;;;;;;5072799;28;20588;-87
2022/08/05 03:37:58;;;;;;;8.17;5.30;;;23.20;99.90;;;;;;5070441;28;20438;-88
2022/08/05 03:40:25;;;;;;;6.10;4.37;;;23.20;99.90;;;;;;5060862;28;20434;-87
2022/08/05 03:42:51;;;;;;;7.00;4.33;;;23.00;99.90;;;;;;5070950;28;20472;-85
2022/08/05 03:45:17;;;;;;;7.57;3.90;;;23.10;99.90;;;;;;5068521;28;20429;-88
2022/08/05 03:47:42;;;;;;;8.70;4.03;;;23.10;99.90;;;;;;5099490;28;20456;-86
2022/08/05 03:50:08;;;;;;;6.60;4.47;;;22.60;99.90;;;;;;5105652;27;20179;-86
2022/08/05 03:52:43;;;;;;;7.10;4.43;;;22.70;99.90;;;;;;5096276;28;20208;-87
2022/08/05 03:55:12;;;;;;;5.80;3.97;;;22.40;99.90;;;;;;5097786;28;20516;-87
2022/08/05 03:57:40;;;;;;;6.63;4.07;;;24.20;99.90;;;;;;5090720;28;20481;-87
2022/08/05 04:00:08;;;;;;;5.67;4.03;;;22.90;99.90;;;;;;5099379;28;20437;-88
2022/08/05 04:02:35;;;;;;;4.40;4.00;;;22.30;99.90;;;;;;5080769;28;20462;-88
2022/08/05 04:05:02;;;;;;;9.27;4.33;;;23.20;99.90;;;;;;5081325;28;20454;-86
2022/08/05 04:07:28;;;;;;;5.63;4.40;;;22.30;99.90;;;;;;5087804;28;21048;-88
2022/08/05 04:09:54;;;;;;;8.10;4.63;;;22.20;99.90;;;;;;5072762;28;20430;-86
2022/08/05 04:12:21;;;;;;;8.17;4.33;;;22.30;99.90;;;;;;5073314;28;20765;-86
2022/08/05 04:14:47;;;;;;;6.97;4.30;;;22.20;99.90;;;;;;5078417;28;20435;-89
2022/08/05 04:17:13;;;;;;;8.20;4.80;;;23.10;99.90;;;;;;5072628;28;20589;-86
2022/08/05 04:19:43;;;;;;;7.57;4.40;;;22.90;99.90;;;;;;5069573;28;20442;-88
2022/08/05 04:22:11;;;;;;;6.10;4.83;;;23.90;99.90;;;;;;5091619;28;23134;-88
2022/08/05 04:24:41;;;;;;;10.30;5.20;;;23.10;99.90;;;;;;5073310;28;20442;-88
2022/08/05 04:27:09;;;;;;;7.90;5.03;;;24.50;99.90;;;;;;5065764;28;20470;-88
2022/08/05 04:29:35;;;;;;;9.23;5.00;;;23.20;99.90;;;;;;5069270;28;20449;-88
2022/08/05 04:32:00;;;;;;;8.90;5.43;;;24.40;99.90;;;;;;5077412;28;20466;-88
2022/08/05 04:34:27;;;;;;;8.70;4.43;;;23.40;99.90;;;;;;5087803;28;20188;-89
2022/08/05 04:36:53;;;;;;;11.47;5.20;;;23.40;99.90;;;;;;5095501;28;20196;-86
2022/08/05 04:39:19;;;;;;;10.60;5.37;;;23.70;99.90;;;;;;5086111;28;20538;-89
2022/08/05 04:41:45;;;;;;;13.47;5.77;;;23.80;99.90;;;;;;5083894;28;20208;-89
2022/08/05 04:44:11;;;;;;;9.80;5.50;;;23.80;99.90;;;;;;5076175;28;20437;-89
2022/08/05 04:46:37;;;;;;;9.57;6.37;;;23.80;99.90;;;;;;5091277;28;20430;-89
2022/08/05 04:49:03;;;;;;;13.23;6.40;;;23.80;99.90;;;;;;5097302;28;20251;-86
2022/08/05 04:51:29;;;;;;;14.23;6.00;;;23.80;99.90;;;;;;5081697;28;20205;-87
2022/08/05 04:53:54;;;;;;;13.53;7.47;;;23.80;99.90;;;;;;5079399;28;20212;-90
2022/08/05 04:56:20;;;;;;;7.67;5.33;;;23.80;99.90;;;;;;5061478;28;20287;-90
2022/08/05 04:58:45;;;;;;;16.63;6.63;;;24.00;99.90;;;;;;5063346;28;20179;-90
2022/08/05 05:01:11;;;;;;;10.67;6.80;;;24.40;99.90;;;;;;5068158;28;20229;-89
2022/08/05 05:03:36;;;;;;;11.00;7.47;;;24.00;99.90;;;;;;5074201;28;20198;-88
2022/08/05 05:06:02;;;;;;;7.40;6.33;;;24.10;99.90;;;;;;5077505;28;20218;-88
2022/08/05 05:08:27;;;;;;;10.53;7.20;;;24.30;99.90;;;;;;5073008;28;20222;-88
2022/08/05 05:10:54;;;;;;;12.63;5.37;;;24.20;99.90;;;;;;5074718;28;20866;-89
2022/08/05 05:13:20;;;;;;;12.10;5.83;;;24.50;99.90;;;;;;5083019;28;20214;-88
2022/08/05 05:15:46;;;;;;;11.43;5.23;;;25.80;99.90;;;;;;5071275;28;20459;-89
2022/08/05 05:18:14;;;;;;;8.43;4.97;;;26.90;99.90;;;;;;5071878;28;20434;-89
2022/08/05 05:20:42;;;;;;;10.43;5.40;;;27.60;99.90;;;;;;5092953;28;20205;-87
2022/08/05 05:23:08;;;;;;;8.33;5.10;;;27.00;99.90;;;;;;5094940;28;20441;-88
2022/08/05 05:25:34;;;;;;;8.77;5.50;;;26.20;99.90;;;;;;5070040;28;20439;-85
2022/08/05 05:27:59;;;;;;;6.03;5.10;;;25.90;99.90;;;;;;5068701;28;20433;-87
2022/08/05 05:30:27;;;;;;;8.13;5.23;;;26.50;99.90;;;;;;5067398;28;20675;-88
2022/08/05 05:32:53;;;;;;;13.00;5.73;;;27.30;99.90;;;;;;5054298;28;20208;-86
2022/08/05 05:35:21;;;;;;;5.77;4.00;;;27.60;99.90;;;;;;5066276;28;20433;-85
2022/08/05 05:37:54;;;;;;;12.63;4.90;;;28.40;99.90;;;;;;5066428;28;20971;-86
2022/08/05 05:40:23;;;;;;;5.83;4.97;;;28.80;99.90;;;;;;5068970;28;20951;-87
2022/08/05 05:42:50;;;;;;;7.00;4.13;;;29.60;99.90;;;;;;5093448;28;20450;-85
2022/08/05 05:45:16;;;;;;;7.40;5.10;;;30.50;98.80;;;;;;5072926;28;20485;-88
2022/08/05 05:47:42;;;;;;;7.73;4.63;;;29.50;97.70;;;;;;5077811;28;20431;-89
2022/08/05 05:50:10;;;;;;;10.30;4.97;;;28.60;99.80;;;;;;5074861;28;20485;-90
2022/08/05 05:52:36;;;;;;;9.67;6.60;;;28.00;99.70;;;;;;5092242;28;20450;-87
2022/08/05 05:55:04;;;;;;;10.73;4.30;;;27.50;99.90;;;;;;5072679;28;20903;-86
2022/08/05 05:57:30;;;;;;;7.13;4.97;;;26.50;99.90;;;;;;5068155;28;20220;-90
2022/08/05 05:59:55;;;;;;;6.50;4.90;;;26.10;99.90;;;;;;5080515;28;20427;-87
2022/08/05 06:02:21;;;;;;;5.57;4.97;;;26.10;99.90;;;;;;5064574;28;20214;-86
2022/08/05 06:04:46;;;;;;;8.97;5.17;;;26.00;99.90;;;;;;5083648;28;20184;-88
2022/08/05 06:07:12;;;;;;;15.07;5.70;;;26.00;99.90;;;;;;5069988;28;20240;-88
2022/08/05 06:09:37;;;;;;;7.30;5.70;;;26.40;99.90;;;;;;5076370;28;20294;-88
2022/08/05 06:12:03;;;;;;;7.17;5.60;;;28.70;99.90;;;;;;5114122;28;20206;-89
2022/08/05 06:14:30;;;;;;;7.50;5.00;;;30.20;99.90;;;;;;5087646;28;20192;-85
2022/08/05 06:16:56;;;;;;;7.20;5.40;;;31.50;98.20;;;;;;5072937;28;20773;-89
2022/08/05 06:19:22;;;;;;;8.33;5.10;;;31.10;96.00;;;;;;5069707;28;20434;-86
2022/08/05 06:21:48;;;;;;;9.00;5.53;;;30.30;97.10;;;;;;5070098;28;20467;-87
2022/08/05 06:24:14;;;;;;;4.47;4.07;;;30.30;96.90;;;;;;5074264;28;20431;-86
2022/08/05 06:26:45;;;;;;;5.53;4.00;;;31.00;94.70;;;;;;5072673;28;20191;-87
2022/08/05 06:29:10;;;;;;;5.03;4.53;;;32.30;94.60;;;;;;5068418;28;20615;-87
2022/08/05 06:31:37;;;;;;;9.23;3.60;;;32.90;91.80;;;;;;5065488;28;21033;-87
2022/08/05 06:34:03;;;;;;;7.90;4.27;;;32.50;91.20;;;;;;5060737;28;20303;-87
2022/08/05 06:36:29;;;;;;;7.27;4.37;;;32.20;90.60;;;;;;5073345;28;20471;-88
2022/08/05 06:38:55;;;;;;;6.37;4.27;;;31.10;90.90;;;;;;5076753;28;20443;-89
2022/08/05 06:41:20;;;;;;;12.40;3.97;;;30.10;93.10;;;;;;5077546;28;20204;-89
2022/08/05 06:43:47;;;;;;;5.80;4.50;;;29.50;94.60;;;;;;5073824;28;20173;-89
2022/08/05 06:46:14;;;;;;;4.77;4.00;;;28.60;95.80;;;;;;5068064;28;20193;-87
2022/08/05 06:48:40;;;;;;;12.13;6.03;;;28.20;98.00;;;;;;5067620;28;20443;-89
2022/08/05 06:51:06;;;;;;;24.40;8.73;;;27.90;99.90;;;;;;5078791;28;20453;-90
2022/08/05 06:53:32;;;;;;;14.33;6.90;;;27.20;99.90;;;;;;5104295;28;20433;-88
2022/08/05 06:56:18;;;;;;;14.07;7.53;;;26.40;99.90;;;;;;5097663;28;20205;-89
2022/08/05 06:58:45;;;;;;;13.10;7.27;;;25.80;99.90;;;;;;5104237;28;20195;-89
2022/08/05 07:01:23;;;;;;;15.07;7.20;;;24.20;99.90;;;;;;5077461;28;20547;-88
2022/08/05 07:03:49;;;;;;;18.43;8.00;;;25.90;99.90;;;;;;5075622;28;20505;-88
2022/08/05 07:07:08;;;;;;;;;;;;;;;;;;;;;
2022/08/05 07:09:34;;;;;;;11.57;8.10;;;23.10;99.90;;;;;;5043749;28;20458;-86
2022/08/05 07:17:50;;;;;;;11.83;6.23;;;26.40;99.90;;;;;;5067844;28;20532;-90
2022/08/05 07:20:15;;;;;;;11.87;6.10;;;29.50;99.90;;;;;;5070909;28;20467;-90
2022/08/05 07:22:41;;;;;;;8.20;5.40;;;29.20;99.90;;;;;;5072925;28;20205;-88
2022/08/05 07:25:07;;;;;;;13.93;5.57;;;30.00;99.90;;;;;;5096606;22;20206;-88
2022/08/05 07:27:32;;;;;;;9.27;5.20;;;31.50;99.90;;;;;;5070070;28;20247;-88
2022/08/05 07:30:06;;;;;;;5.80;4.60;;;33.30;99.90;;;;;;5072332;28;20187;-87
2022/08/05 07:32:36;;;;;;;5.23;4.73;;;34.20;99.90;;;;;;5067543;28;20187;-89
2022/08/05 07:35:12;;;;;;;10.30;4.90;;;33.40;99.90;;;;;;5069865;28;20438;-88
2022/08/05 07:37:42;;;;;;;5.67;4.57;;;33.10;99.90;;;;;;5067241;28;20469;-88
2022/08/05 07:43:12;;;;;;;6.90;4.70;;;32.00;99.90;;;;;;5068369;28;21055;-89
2022/08/05 08:06:15;;;;;;;4.50;4.10;;;35.40;91.70;;;;;;5018664;28;20890;-90
2022/08/05 08:08:40;;;;;;;5.47;4.97;;;36.10;89.20;;;;;;5009828;28;20486;-90
2022/08/05 08:11:06;;;;;;;5.27;4.80;;;37.20;86.00;;;;;;5025529;28;20184;-88
2022/08/05 08:13:31;;;;;;;5.77;4.43;;;36.80;80.30;;;;;;5007972;28;20551;-90
2022/08/05 08:15:57;;;;;;;5.83;5.40;;;37.70;82.90;;;;;;5015197;28;20266;-90
2022/08/05 08:18:22;;;;;;;6.70;4.80;;;37.50;77.40;;;;;;5009985;28;20184;-89
2022/08/05 08:20:50;;;;;;;5.80;5.30;;;;;;;;;;5020257;28;21177;-90
2022/08/05 08:23:17;;;;;;;6.13;5.40;;;38.30;72.70;;;;;;5014614;28;20181;-88
2022/08/05 08:25:43;;;;;;;5.83;5.33;;;;;;;;;;5012008;28;20460;-91
2022/08/05 08:28:09;;;;;;;6.40;5.83;;;39.00;68.60;;;;;;5017598;28;20473;-89
2022/08/05 08:30:34;;;;;;;6.70;5.40;;;38.10;69.00;;;;;;5031228;28;20428;-88
2022/08/05 08:33:00;;;;;;;6.30;5.80;;;;;;;;;;5026296;28;20209;-87
2022/08/05 08:35:26;;;;;;;5.80;5.27;;;39.50;61.80;;;;;;5014323;28;20235;-89
2022/08/05 08:37:51;;;;;;;6.10;5.60;;;38.00;62.50;;;;;;5008355;28;20477;-87
2022/08/05 08:40:17;;;;;;;6.33;5.63;;;35.80;63.50;;;;;;5026188;28;20192;-89
2022/08/05 08:42:49;;;;;;;7.10;5.17;;;34.40;67.90;;;;;;5023824;28;20218;-89
2022/08/05 08:45:15;;;;;;;5.87;5.33;;;34.70;72.50;;;;;;5006007;28;20201;-87
2022/08/05 08:47:44;;;;;;;6.03;5.30;;;34.20;69.20;;;;;;5022178;28;20462;-91
2022/08/05 08:50:12;;;;;;;5.07;4.57;;;32.80;72.40;;;;;;4999503;28;20449;-89
2022/08/05 08:52:54;;;;;;;;;;;;;;;;;;;;;
2022/08/05 08:55:21;;;;;;;7.83;6.93;;;33.50;77.10;;;;;;5022907;28;20472;-87
2022/08/05 08:57:47;;;;;;;6.33;5.43;;;;;;;;;;5006944;28;20555;-89
2022/08/05 09:00:14;;;;;;;6.67;6.10;;;;;;;;;;5016767;28;20436;-90
2022/08/05 09:02:40;;;;;;;7.63;6.07;;;;;;;;;;5017693;28;20840;-90
2022/08/05 09:05:05;;;;;;;5.93;5.43;;;36.20;61.20;;;;;;5009231;28;20443;-89
2022/08/05 09:07:31;;;;;;;6.50;5.87;;;36.80;63.00;;;;;;5016622;28;20476;-90
2022/08/05 09:09:59;;;;;;;6.80;6.30;;;38.50;55.50;;;;;;5020648;28;20229;-89
2022/08/05 09:12:25;;;;;;;7.33;6.83;;;;;;;;;;5012395;28;20192;-89
2022/08/05 09:14:51;;;;;;;7.30;6.70;;;;;;;;;;5011811;28;20523;-91
2022/08/05 09:17:18;;;;;;;9.73;6.73;;;38.80;56.00;;;;;;5015051;28;20542;-88
2022/08/05 09:19:43;;;;;;;8.87;8.07;;;38.30;55.50;;;;;;5002082;28;20534;-90
2022/08/05 09:22:09;;;;;;;6.50;5.90;;;37.40;55.10;;;;;;5018007;28;20488;-88
2022/08/05 09:24:36;;;;;;;10.33;6.93;;;37.00;56.10;;;;;;5007121;28;20203;-89
2022/08/05 09:27:07;;;;;;;8.23;7.73;;;37.50;56.30;;;;;;5030731;28;20199;-87
2022/08/05 09:29:46;;;;;;;8.37;7.70;;;37.80;55.70;;;;;;5032153;28;20431;-89
2022/08/05 09:32:13;;;;;;;8.97;8.20;;;38.80;54.30;;;;;;5043865;28;20448;-89
2022/08/05 09:34:55;;;;;;;9.03;8.20;;;37.60;53.20;;;;;;5043701;28;20446;-91
2022/08/05 09:37:25;;;;;;;10.53;9.63;;;38.10;52.90;;;;;;5029062;28;20463;-89
2022/08/05 09:39:51;;;;;;;7.60;6.97;;;38.20;51.60;;;;;;5022652;28;21240;-91
2022/08/05 09:42:24;;;;;;;9.03;8.13;;;40.30;54.50;;;;;;5027137;28;20474;-87
2022/08/05 09:44:54;;;;;;;10.37;9.50;;;42.50;47.90;;;;;;5015419;28;20174;-89
2022/08/05 09:47:36;;;;;;;11.13;10.40;;;44.80;42.90;;;;;;5024456;28;20429;-89
2022/08/05 09:50:05;;;;;;;10.87;10.27;;;;;;;;;;5008027;28;20447;-87
2022/08/05 09:52:59;;;;;;;;;;;;;;;;;;;;;
2022/08/05 09:55:25;;;;;;;10.27;9.77;;;39.90;46.00;;;;;;5026786;28;20448;-88
2022/08/05 09:57:55;;;;;;;8.80;8.30;;;35.70;48.70;;;;;;5022841;28;20536;-88
2022/08/05 10:00:24;;;;;;;8.40;8.00;;;36.00;50.70;;;;;;5009342;28;20181;-89
2022/08/05 10:02:54;;;;;;;8.50;8.00;;;35.60;52.10;;;;;;5029902;28;20433;-88
2022/08/05 10:05:23;;;;;;;8.07;7.37;;;35.80;51.20;;;;;;5044851;28;20488;-86
2022/08/05 10:07:56;;;;;;;8.07;7.57;;;37.40;51.90;;;;;;5015997;28;20454;-87
2022/08/05 10:10:25;;;;;;;8.40;7.80;;;36.90;49.50;;;;;;5023780;28;20439;-87
2022/08/05 10:12:54;;;;;;;9.30;8.60;;;36.90;49.80;;;;;;5023034;28;20449;-88
2022/08/05 10:15:28;;;;;;;9.13;8.53;;;37.20;50.00;;;;;;5008804;28;20457;-91
2022/08/05 10:18:08;;;;;;;8.30;7.90;;;35.40;49.60;;;;;;5007476;28;20479;-89
2022/08/05 10:20:37;;;;;;;8.50;7.80;;;36.60;50.30;;;;;;5011891;28;20442;-88
2022/08/05 10:23:03;;;;;;;9.17;8.57;;;36.60;49.50;;;;;;5009589;28;20433;-89
2022/08/05 10:25:29;;;;;;;9.07;8.33;;;35.50;49.90;;;;;;5009774;28;20466;-87
2022/08/05 10:27:57;;;;;;;8.50;7.90;;;35.80;49.60;;;;;;5020750;28;20495;-88
2022/08/05 10:30:23;;;;;;;8.50;7.93;;;35.60;49.70;;;;;;5000314;28;20222;-86
2022/08/05 10:32:48;;;;;;;7.50;7.10;;;34.90;49.60;;;;;;5000172;28;20455;-86
2022/08/05 10:35:15;;;;;;;7.70;7.30;;;34.30;50.50;;;;;;5016144;28;20452;-89
2022/08/05 10:37:41;;;;;;;6.30;5.93;;;33.60;53.10;;;;;;5002407;28;20213;-90
2022/08/05 10:40:17;;;;;;;6.23;5.80;;;32.40;55.10;;;;;;5016816;28;20838;-88
2022/08/05 10:42:46;;;;;;;6.40;5.90;;;32.40;55.30;;;;;;5001795;28;20513;-85
2022/08/05 10:45:14;;;;;;;5.77;5.37;;;32.00;54.50;;;;;;5013186;28;20493;-89
2022/08/05 10:47:43;;;;;;;6.23;5.77;;;31.50;55.40;;;;;;4994824;28;20922;-86
2022/08/05 10:50:13;;;;;;;6.00;5.20;;;31.60;56.00;;;;;;5013149;28;20503;-86
2022/08/05 10:52:58;;;;;;;5.70;4.93;;;31.80;56.30;;;;;;5013013;28;20991;-90
2022/08/05 10:55:25;;;;;;;6.43;6.03;;;31.80;56.20;;;;;;5028720;28;20455;-87
2022/08/05 10:58:10;;;;;;;5.60;5.20;;;32.30;56.60;;;;;;5001196;28;20460;-87
2022/08/05 11:00:36;;;;;;;5.60;5.20;;;32.60;56.40;;;;;;5013324;28;20480;-86
2022/08/05 11:03:04;;;;;;;5.90;5.40;;;32.30;55.00;;;;;;5015510;28;21439;-88
2022/08/05 11:05:31;;;;;;;5.73;5.33;;;32.00;55.50;;;;;;4999725;28;20279;-87
2022/08/05 11:08:03;;;;;;;5.50;5.10;;;32.10;56.50;;;;;;5005681;28;20446;-88
2022/08/05 11:10:30;;;;;;;5.30;4.90;;;32.20;57.20;;;;;;4995557;28;20787;-89
2022/08/05 11:12:57;;;;;;;5.53;5.10;;;32.00;54.50;;;;;;5009687;28;20486;-86
2022/08/05 11:15:29;;;;;;;5.30;4.80;;;32.10;56.10;;;;;;5013276;28;20466;-89
2022/08/05 11:18:31;;;;;;;5.63;5.23;;;32.30;56.90;;;;;;5007133;28;20459;-86
2022/08/05 11:20:57;;;;;;;5.77;5.27;;;32.20;57.70;;;;;;5013967;28;20445;-88
2022/08/05 11:23:31;;;;;;;6.50;5.83;;;32.30;57.10;;;;;;4998543;28;20446;-89
2022/08/05 11:26:03;;;;;;;11.00;5.43;;;32.00;56.60;;;;;;5000865;28;20208;-87
2022/08/05 11:28:31;;;;;;;5.50;5.20;;;32.00;56.90;;;;;;4997717;28;20523;-87
2022/08/05 11:30:57;;;;;;;5.47;5.00;;;32.20;56.60;;;;;;4996662;28;20446;-87
2022/08/05 11:33:26;;;;;;;6.20;5.20;;;32.50;56.60;;;;;;5002986;28;20440;-88
2022/08/05 11:35:53;;;;;;;5.13;4.83;;;32.20;55.60;;;;;;4999181;28;20209;-88
2022/08/05 11:38:42;;;;;;;5.60;5.20;;;32.30;55.80;;;;;;5011571;28;20465;-88
2022/08/05 11:41:19;;;;;;;6.50;4.60;;;32.40;55.90;;;;;;5032998;28;20468;-88
2022/08/05 11:43:59;;;;;;;5.80;5.40;;;31.80;56.10;;;;;;5000733;28;20440;-88
2022/08/05 11:46:31;;;;;;;5.00;4.70;;;31.60;56.30;;;;;;5010868;28;20519;-88
2022/08/05 11:48:58;;;;;;;4.67;4.30;;;32.00;57.60;;;;;;5010650;28;20438;-86
2022/08/05 11:51:26;;;;;;;4.70;4.47;;;32.60;56.50;;;;;;5010558;28;20438;-86
2022/08/05 11:53:51;;;;;;;5.47;4.97;;;32.30;55.10;;;;;;4994650;28;20484;-88
2022/08/05 11:56:17;;;;;;;5.63;5.17;;;32.30;55.20;;;;;;4994710;28;20961;-89
2022/08/05 11:58:44;;;;;;;5.23;4.70;;;32.20;55.80;;;;;;4995094;28;20898;-89
2022/08/05 12:01:12;;;;;;;6.00;4.80;;;32.00;56.00;;;;;;5002870;28;20175;-91
2022/08/05 12:03:53;;;;;;;5.33;4.90;;;32.00;56.30;;;;;;5009464;28;20433;-88
2022/08/05 12:06:28;;;;;;;6.07;5.57;;;32.00;56.00;;;;;;4999192;28;20477;-88
2022/08/05 12:08:59;;;;;;;4.53;4.23;;;32.10;56.00;;;;;;5003568;28;20582;-87
2022/08/05 12:11:27;;;;;;;4.70;4.40;;;32.00;56.10;;;;;;5003365;28;20442;-87
2022/08/05 12:14:00;;;;;;;5.10;4.80;;;32.20;55.80;;;;;;5006407;28;20463;-88
2022/08/05 12:16:27;;;;;;;5.57;5.20;;;32.00;55.30;;;;;;5016799;28;20465;-87
2022/08/05 12:18:54;;;;;;;6.70;5.20;;;31.70;56.10;;;;;;5024053;28;20482;-88
2022/08/05 12:21:28;;;;;;;5.47;5.17;;;31.90;56.00;;;;;;5021623;28;20453;-87
2022/08/05 12:24:09;;;;;;;5.10;4.80;;;32.00;55.40;;;;;;5041684;28;20434;-86
2022/08/05 12:26:39;;;;;;;6.10;5.70;;;32.00;56.20;;;;;;5020084;28;20457;-87
2022/08/05 12:29:07;;;;;;;4.70;4.30;;;32.00;55.60;;;;;;5018314;28;20437;-85
2022/08/05 12:31:34;;;;;;;5.10;4.73;;;31.90;55.10;;;;;;5034493;28;20934;-88
2022/08/05 12:34:06;;;;;;;5.90;5.40;;;31.60;55.60;;;;;;5011370;28;20429;-87
2022/08/05 12:36:33;;;;;;;6.00;5.10;;;33.10;57.20;;;;;;5023240;28;20485;-86
2022/08/05 12:38:58;;;;;;;5.90;5.40;;;31.70;57.10;;;;;;5003632;28;20437;-88
2022/08/05 12:41:33;;;;;;;5.60;5.20;;;31.70;56.70;;;;;;5000919;28;21036;-89
2022/08/05 12:44:10;;;;;;;5.90;5.30;;;31.50;55.70;;;;;;5021639;28;20178;-89
2022/08/05 12:46:37;;;;;;;5.17;4.70;;;31.80;57.20;;;;;;5014734;28;20498;-88
2022/08/05 12:49:13;;;;;;;5.33;4.97;;;32.00;55.40;;;;;;4990499;28;20451;-90
2022/08/05 12:51:58;;;;;;;5.20;4.90;;;32.00;55.20;;;;;;4992917;28;20984;-86
2022/08/05 12:54:30;;;;;;;5.63;5.23;;;32.30;56.40;;;;;;4995871;28;20464;-90
2022/08/05 12:57:00;;;;;;;5.40;5.00;;;32.40;55.10;;;;;;5005526;28;20487;-89
2022/08/05 12:59:49;;;;;;;5.03;4.73;;;32.30;55.10;;;;;;5006822;28;20439;-89
2022/08/05 13:02:20;;;;;;;4.80;4.50;;;32.20;55.00;;;;;;5006762;28;20465;-86
2022/08/05 13:04:47;;;;;;;5.73;5.37;;;31.60;55.40;;;;;;5016248;28;20477;-88
2022/08/05 13:07:25;;;;;;;5.60;5.20;;;31.70;55.80;;;;;;5016247;28;20454;-88
2022/08/05 13:09:57;;;;;;;5.00;4.60;;;30.30;55.60;;;;;;5009142;28;20443;-90
2022/08/05 13:12:30;;;;;;;5.30;4.67;;;31.60;56.00;;;;;;5013317;28;20439;-86
2022/08/05 13:14:58;;;;;;;8.00;5.20;;;31.50;56.40;;;;;;5034989;28;20508;-86
2022/08/05 13:17:29;;;;;;;5.57;5.17;;;31.40;56.30;;;;;;5013021;28;20489;-87
2022/08/05 13:20:11;;;;;;;5.60;5.10;;;31.60;57.00;;;;;;5006441;28;20440;-89
2022/08/05 13:22:45;;;;;;;5.70;5.30;;;31.70;56.30;;;;;;5012674;28;20476;-89
2022/08/05 13:25:14;;;;;;;5.53;5.13;;;32.20;56.80;;;;;;5012456;28;20438;-85
2022/08/05 13:27:42;;;;;;;5.87;5.33;;;32.30;56.10;;;;;;5007599;28;20513;-89
2022/08/05 13:30:10;;;;;;;4.63;4.33;;;31.80;55.70;;;;;;5011821;28;20465;-89